sensor_id;sensor_type;location;lat;lon;timestamp;temperature;humidity
72355;SHT30;60314;55.040;73.076;2022-10-18T00:00:51;5.03;81.92
72355;SHT30;60314;55.040;73.076;2022-10-18T00:03:18;4.99;82.06
72355;SHT30;60314;55.040;73.076;2022-10-18T00:05:46;4.97;82.16
72355;SHT30;60314;55.040;73.076;2022-10-18T00:08:13;4.95;82.42
72355;SHT30;60314;55.040;73.076;2022-10-18T00:10:39;4.93;82.51
72355;SHT30;60314;55.040;73.076;2022-10-18T00:13:06;4.88;82.67
72355;SHT30;60314;55.040;73.076;2022-10-18T00:15:32;4.89;82.89
72355;SHT30;60314;55.040;73.076;2022-10-18T00:17:59;4.89;83.04
72355;SHT30;60314;55.040;73.076;2022-10-18T00:20:25;4.86;83.27
72355;SHT30;60314;55.040;73.076;2022-10-18T00:22:52;4.84;83.53
72355;SHT30;60314;55.040;73.076;2022-10-18T00:25:19;4.86;83.50
72355;SHT30;60314;55.040;73.076;2022-10-18T00:27:45;4.91;83.45
72355;SHT30;60314;55.040;73.076;2022-10-18T00:30:12;4.91;83.60
72355;SHT30;60314;55.040;73.076;2022-10-18T00:32:40;4.93;83.64
72355;SHT30;60314;55.040;73.076;2022-10-18T00:35:07;4.96;83.59
72355;SHT30;60314;55.040;73.076;2022-10-18T00:37:34;4.99;83.80
72355;SHT30;60314;55.040;73.076;2022-10-18T00:40:01;5.02;83.90
72355;SHT30;60314;55.040;73.076;2022-10-18T00:42:36;5.05;83.77
72355;SHT30;60314;55.040;73.076;2022-10-18T00:45:21;5.06;83.81
72355;SHT30;60314;55.040;73.076;2022-10-18T00:48:08;5.09;83.91
72355;SHT30;60314;55.040;73.076;2022-10-18T00:50:35;5.13;83.89
72355;SHT30;60314;55.040;73.076;2022-10-18T00:53:09;5.11;83.84
72355;SHT30;60314;55.040;73.076;2022-10-18T00:55:37;5.12;84.03
72355;SHT30;60314;55.040;73.076;2022-10-18T00:58:04;5.09;84.04
72355;SHT30;60314;55.040;73.076;2022-10-18T01:00:31;5.09;84.29
72355;SHT30;60314;55.040;73.076;2022-10-18T01:03:01;5.05;84.37
72355;SHT30;60314;55.040;73.076;2022-10-18T01:05:27;5.09;84.43
72355;SHT30;60314;55.040;73.076;2022-10-18T01:15:58;5.19;84.15
72355;SHT30;60314;55.040;73.076;2022-10-18T01:18:51;5.23;84.02
72355;SHT30;60314;55.040;73.076;2022-10-18T01:24:23;5.22;83.99
72355;SHT30;60314;55.040;73.076;2022-10-18T01:32:26;5.23;84.18
72355;SHT30;60314;55.040;73.076;2022-10-18T01:35:02;5.27;84.10
72355;SHT30;60314;55.040;73.076;2022-10-18T01:37:31;5.26;83.98
72355;SHT30;60314;55.040;73.076;2022-10-18T01:40:02;5.29;84.14
72355;SHT30;60314;55.040;73.076;2022-10-18T01:42:32;5.30;84.13
72355;SHT30;60314;55.040;73.076;2022-10-18T01:45:00;5.34;84.08
72355;SHT30;60314;55.040;73.076;2022-10-18T01:47:38;5.37;83.97
72355;SHT30;60314;55.040;73.076;2022-10-18T01:50:05;5.36;84.16
72355;SHT30;60314;55.040;73.076;2022-10-18T01:52:49;5.39;83.89
72355;SHT30;60314;55.040;73.076;2022-10-18T01:55:42;5.40;83.81
72355;SHT30;60314;55.040;73.076;2022-10-18T02:00:43;5.48;83.76
72355;SHT30;60314;55.040;73.076;2022-10-18T02:03:21;5.48;83.69
72355;SHT30;60314;55.040;73.076;2022-10-18T02:08:37;5.48;83.95
72355;SHT30;60314;55.040;73.076;2022-10-18T02:11:09;5.48;83.75
72355;SHT30;60314;55.040;73.076;2022-10-18T02:13:38;5.54;83.86
72355;SHT30;60314;55.040;73.076;2022-10-18T02:16:13;5.61;83.85
72355;SHT30;60314;55.040;73.076;2022-10-18T02:18:48;5.61;83.87
72355;SHT30;60314;55.040;73.076;2022-10-18T02:21:18;5.60;84.04
72355;SHT30;60314;55.040;73.076;2022-10-18T02:23:47;5.63;83.80
72355;SHT30;60314;55.040;73.076;2022-10-18T02:26:14;5.67;83.99
72355;SHT30;60314;55.040;73.076;2022-10-18T02:28:41;5.67;83.99
72355;SHT30;60314;55.040;73.076;2022-10-18T02:31:27;5.66;84.11
72355;SHT30;60314;55.040;73.076;2022-10-18T02:33:59;5.71;84.09
72355;SHT30;60314;55.040;73.076;2022-10-18T02:36:35;5.70;83.94
72355;SHT30;60314;55.040;73.076;2022-10-18T02:39:13;5.73;84.18
72355;SHT30;60314;55.040;73.076;2022-10-18T02:41:40;5.79;83.99
72355;SHT30;60314;55.040;73.076;2022-10-18T02:44:07;5.78;83.60
72355;SHT30;60314;55.040;73.076;2022-10-18T02:46:34;5.78;83.78
72355;SHT30;60314;55.040;73.076;2022-10-18T02:49:00;5.79;83.62
72355;SHT30;60314;55.040;73.076;2022-10-18T02:51:28;5.79;83.65
72355;SHT30;60314;55.040;73.076;2022-10-18T02:53:54;5.83;83.72
72355;SHT30;60314;55.040;73.076;2022-10-18T02:56:21;5.83;83.81
72355;SHT30;60314;55.040;73.076;2022-10-18T02:58:52;5.90;83.67
72355;SHT30;60314;55.040;73.076;2022-10-18T03:01:23;5.88;83.80
72355;SHT30;60314;55.040;73.076;2022-10-18T03:03:54;5.90;83.42
72355;SHT30;60314;55.040;73.076;2022-10-18T03:06:24;5.95;83.44
72355;SHT30;60314;55.040;73.076;2022-10-18T03:08:50;5.98;83.21
72355;SHT30;60314;55.040;73.076;2022-10-18T03:11:16;6.02;83.22
72355;SHT30;60314;55.040;73.076;2022-10-18T03:13:43;6.07;83.18
72355;SHT30;60314;55.040;73.076;2022-10-18T03:16:10;6.11;83.29
72355;SHT30;60314;55.040;73.076;2022-10-18T03:18:37;6.19;82.67
72355;SHT30;60314;55.040;73.076;2022-10-18T03:21:05;6.19;82.99
72355;SHT30;60314;55.040;73.076;2022-10-18T03:23:32;6.25;82.97
72355;SHT30;60314;55.040;73.076;2022-10-18T03:25:58;6.29;82.99
72355;SHT30;60314;55.040;73.076;2022-10-18T03:28:25;6.29;82.81
72355;SHT30;60314;55.040;73.076;2022-10-18T03:30:52;6.39;82.73
72355;SHT30;60314;55.040;73.076;2022-10-18T03:33:18;6.42;82.50
72355;SHT30;60314;55.040;73.076;2022-10-18T03:35:45;6.48;82.31
72355;SHT30;60314;55.040;73.076;2022-10-18T03:38:11;6.57;82.33
72355;SHT30;60314;55.040;73.076;2022-10-18T03:40:38;6.54;81.95
72355;SHT30;60314;55.040;73.076;2022-10-18T03:43:05;6.52;82.19
72355;SHT30;60314;55.040;73.076;2022-10-18T03:45:31;6.50;82.02
72355;SHT30;60314;55.040;73.076;2022-10-18T03:47:58;6.52;82.45
72355;SHT30;60314;55.040;73.076;2022-10-18T03:50:25;6.52;82.35
72355;SHT30;60314;55.040;73.076;2022-10-18T03:52:51;6.49;82.35
72355;SHT30;60314;55.040;73.076;2022-10-18T03:55:19;6.48;82.22
72355;SHT30;60314;55.040;73.076;2022-10-18T03:57:46;6.49;82.28
72355;SHT30;60314;55.040;73.076;2022-10-18T04:00:13;6.43;82.32
72355;SHT30;60314;55.040;73.076;2022-10-18T04:02:40;6.48;82.62
72355;SHT30;60314;55.040;73.076;2022-10-18T04:05:09;6.48;82.93
72355;SHT30;60314;55.040;73.076;2022-10-18T04:07:41;6.48;83.17
72355;SHT30;60314;55.040;73.076;2022-10-18T04:10:07;6.43;83.42
72355;SHT30;60314;55.040;73.076;2022-10-18T04:12:34;6.46;83.36
72355;SHT30;60314;55.040;73.076;2022-10-18T04:15:01;6.49;83.11
72355;SHT30;60314;55.040;73.076;2022-10-18T04:17:27;6.54;83.49
72355;SHT30;60314;55.040;73.076;2022-10-18T04:19:59;6.57;83.66
72355;SHT30;60314;55.040;73.076;2022-10-18T04:22:34;6.57;83.66
72355;SHT30;60314;55.040;73.076;2022-10-18T04:25:01;6.60;83.58
72355;SHT30;60314;55.040;73.076;2022-10-18T04:27:27;6.65;83.61
72355;SHT30;60314;55.040;73.076;2022-10-18T04:29:54;6.63;83.90
72355;SHT30;60314;55.040;73.076;2022-10-18T04:32:20;6.60;84.00
72355;SHT30;60314;55.040;73.076;2022-10-18T04:34:52;6.66;84.10
72355;SHT30;60314;55.040;73.076;2022-10-18T04:37:18;6.70;84.27
72355;SHT30;60314;55.040;73.076;2022-10-18T04:39:48;6.73;84.26
72355;SHT30;60314;55.040;73.076;2022-10-18T04:42:15;6.79;84.41
72355;SHT30;60314;55.040;73.076;2022-10-18T04:44:42;6.79;83.75
72355;SHT30;60314;55.040;73.076;2022-10-18T04:47:08;6.80;83.60
72355;SHT30;60314;55.040;73.076;2022-10-18T04:49:35;6.81;83.77
72355;SHT30;60314;55.040;73.076;2022-10-18T04:52:01;6.84;83.46
72355;SHT30;60314;55.040;73.076;2022-10-18T04:54:28;6.84;84.04
72355;SHT30;60314;55.040;73.076;2022-10-18T04:56:54;6.84;84.55
72355;SHT30;60314;55.040;73.076;2022-10-18T04:59:31;6.77;84.92
72355;SHT30;60314;55.040;73.076;2022-10-18T05:01:57;6.73;84.83
72355;SHT30;60314;55.040;73.076;2022-10-18T05:04:24;6.72;85.02
72355;SHT30;60314;55.040;73.076;2022-10-18T05:06:51;6.79;85.26
72355;SHT30;60314;55.040;73.076;2022-10-18T05:09:17;6.87;85.61
72355;SHT30;60314;55.040;73.076;2022-10-18T05:11:50;6.91;85.03
72355;SHT30;60314;55.040;73.076;2022-10-18T05:14:16;6.96;85.21
72355;SHT30;60314;55.040;73.076;2022-10-18T05:16:43;7.01;85.28
72355;SHT30;60314;55.040;73.076;2022-10-18T05:19:10;7.00;85.06
72355;SHT30;60314;55.040;73.076;2022-10-18T05:21:36;7.04;85.15
72355;SHT30;60314;55.040;73.076;2022-10-18T05:24:03;7.12;84.96
72355;SHT30;60314;55.040;73.076;2022-10-18T05:26:34;7.15;84.71
72355;SHT30;60314;55.040;73.076;2022-10-18T05:29:11;7.20;84.67
72355;SHT30;60314;55.040;73.076;2022-10-18T05:31:37;7.28;84.64
72355;SHT30;60314;55.040;73.076;2022-10-18T05:34:04;7.36;84.37
72355;SHT30;60314;55.040;73.076;2022-10-18T05:36:30;7.48;84.78
72355;SHT30;60314;55.040;73.076;2022-10-18T05:38:57;7.56;84.34
72355;SHT30;60314;55.040;73.076;2022-10-18T05:41:23;7.65;83.78
72355;SHT30;60314;55.040;73.076;2022-10-18T05:43:50;7.70;84.20
72355;SHT30;60314;55.040;73.076;2022-10-18T05:46:16;7.85;84.58
72355;SHT30;60314;55.040;73.076;2022-10-18T05:48:43;7.94;84.41
72355;SHT30;60314;55.040;73.076;2022-10-18T05:51:10;7.94;83.34
72355;SHT30;60314;55.040;73.076;2022-10-18T05:53:37;7.99;83.56
72355;SHT30;60314;55.040;73.076;2022-10-18T05:56:04;7.97;83.30
72355;SHT30;60314;55.040;73.076;2022-10-18T05:58:31;7.92;83.40
72355;SHT30;60314;55.040;73.076;2022-10-18T06:01:00;7.94;83.43
72355;SHT30;60314;55.040;73.076;2022-10-18T06:03:27;7.94;83.81
72355;SHT30;60314;55.040;73.076;2022-10-18T06:06:13;7.94;82.61
72355;SHT30;60314;55.040;73.076;2022-10-18T06:08:41;7.97;82.91
72355;SHT30;60314;55.040;73.076;2022-10-18T06:11:13;7.99;83.42
72355;SHT30;60314;55.040;73.076;2022-10-18T06:13:44;8.06;83.54
72355;SHT30;60314;55.040;73.076;2022-10-18T06:16:13;8.17;82.67
72355;SHT30;60314;55.040;73.076;2022-10-18T06:18:40;8.24;83.41
72355;SHT30;60314;55.040;73.076;2022-10-18T06:21:07;8.27;82.68
72355;SHT30;60314;55.040;73.076;2022-10-18T06:23:34;8.29;82.90
72355;SHT30;60314;55.040;73.076;2022-10-18T06:26:09;8.31;82.91
72355;SHT30;60314;55.040;73.076;2022-10-18T06:28:46;8.33;83.09
72355;SHT30;60314;55.040;73.076;2022-10-18T06:31:13;8.38;83.12
72355;SHT30;60314;55.040;73.076;2022-10-18T06:33:40;8.33;82.38
72355;SHT30;60314;55.040;73.076;2022-10-18T06:36:15;8.34;82.58
72355;SHT30;60314;55.040;73.076;2022-10-18T06:38:42;8.29;82.39
72355;SHT30;60314;55.040;73.076;2022-10-18T06:41:09;8.24;82.40
72355;SHT30;60314;55.040;73.076;2022-10-18T06:43:36;8.21;83.05
72355;SHT30;60314;55.040;73.076;2022-10-18T06:46:04;8.19;82.72
72355;SHT30;60314;55.040;73.076;2022-10-18T06:48:33;8.16;83.01
72355;SHT30;60314;55.040;73.076;2022-10-18T06:51:02;8.09;83.53
72355;SHT30;60314;55.040;73.076;2022-10-18T06:53:37;8.11;83.80
72355;SHT30;60314;55.040;73.076;2022-10-18T06:56:14;8.13;83.67
72355;SHT30;60314;55.040;73.076;2022-10-18T06:58:48;8.21;84.54
72355;SHT30;60314;55.040;73.076;2022-10-18T07:01:18;8.33;84.67
72355;SHT30;60314;55.040;73.076;2022-10-18T07:03:51;8.45;84.99
72355;SHT30;60314;55.040;73.076;2022-10-18T07:06:19;8.54;84.68
72355;SHT30;60314;55.040;73.076;2022-10-18T07:08:47;8.62;83.74
72355;SHT30;60314;55.040;73.076;2022-10-18T07:11:20;8.64;82.34
72355;SHT30;60314;55.040;73.076;2022-10-18T07:13:46;8.75;83.07
72355;SHT30;60314;55.040;73.076;2022-10-18T07:16:14;8.92;83.92
72355;SHT30;60314;55.040;73.076;2022-10-18T07:18:44;9.05;83.48
72355;SHT30;60314;55.040;73.076;2022-10-18T07:21:13;9.13;82.29
72355;SHT30;60314;55.040;73.076;2022-10-18T07:23:41;9.19;81.89
72355;SHT30;60314;55.040;73.076;2022-10-18T07:29:01;9.33;80.17
72355;SHT30;60314;55.040;73.076;2022-10-18T07:31:29;9.29;79.89
72355;SHT30;60314;55.040;73.076;2022-10-18T07:33:56;9.20;78.89
72355;SHT30;60314;55.040;73.076;2022-10-18T07:36:28;9.13;78.45
72355;SHT30;60314;55.040;73.076;2022-10-18T07:38:56;9.18;78.58
72355;SHT30;60314;55.040;73.076;2022-10-18T07:41:22;9.20;79.34
72355;SHT30;60314;55.040;73.076;2022-10-18T07:43:50;9.32;79.43
72355;SHT30;60314;55.040;73.076;2022-10-18T07:46:19;9.36;78.71
72355;SHT30;60314;55.040;73.076;2022-10-18T07:48:45;9.37;79.19
72355;SHT30;60314;55.040;73.076;2022-10-18T07:51:12;9.34;78.33
72355;SHT30;60314;55.040;73.076;2022-10-18T07:53:40;9.29;78.82
72355;SHT30;60314;55.040;73.076;2022-10-18T07:56:10;9.29;77.91
72355;SHT30;60314;55.040;73.076;2022-10-18T07:58:48;9.29;78.82
72355;SHT30;60314;55.040;73.076;2022-10-18T08:01:17;9.36;77.79
72355;SHT30;60314;55.040;73.076;2022-10-18T08:03:43;9.48;79.39
72355;SHT30;60314;55.040;73.076;2022-10-18T08:06:16;9.65;78.81
72355;SHT30;60314;55.040;73.076;2022-10-18T08:08:44;9.80;77.45
72355;SHT30;60314;55.040;73.076;2022-10-18T08:11:14;9.90;76.84
72355;SHT30;60314;55.040;73.076;2022-10-18T08:13:42;9.91;75.98
72355;SHT30;60314;55.040;73.076;2022-10-18T08:16:11;9.91;75.82
72355;SHT30;60314;55.040;73.076;2022-10-18T08:18:38;9.85;75.19
72355;SHT30;60314;55.040;73.076;2022-10-18T08:21:06;9.85;75.42
72355;SHT30;60314;55.040;73.076;2022-10-18T08:23:34;9.94;74.77
72355;SHT30;60314;55.040;73.076;2022-10-18T08:26:03;10.01;75.96
72355;SHT30;60314;55.040;73.076;2022-10-18T08:28:30;10.11;74.15
72355;SHT30;60314;55.040;73.076;2022-10-18T08:31:04;10.15;74.51
72355;SHT30;60314;55.040;73.076;2022-10-18T08:33:32;10.11;74.13
72355;SHT30;60314;55.040;73.076;2022-10-18T08:36:00;9.95;74.08
72355;SHT30;60314;55.040;73.076;2022-10-18T08:38:31;9.81;74.69
72355;SHT30;60314;55.040;73.076;2022-10-18T08:43:57;9.61;75.65
72355;SHT30;60314;55.040;73.076;2022-10-18T08:46:28;9.60;75.21
72355;SHT30;60314;55.040;73.076;2022-10-18T08:48:56;9.58;74.90
72355;SHT30;60314;55.040;73.076;2022-10-18T08:54:13;9.71;74.70
72355;SHT30;60314;55.040;73.076;2022-10-18T08:56:45;9.78;75.34
72355;SHT30;60314;55.040;73.076;2022-10-18T08:59:18;9.73;75.15
72355;SHT30;60314;55.040;73.076;2022-10-18T09:02:09;9.67;75.21
72355;SHT30;60314;55.040;73.076;2022-10-18T09:05:00;9.60;75.50
72355;SHT30;60314;55.040;73.076;2022-10-18T09:07:56;9.58;75.40
72355;SHT30;60314;55.040;73.076;2022-10-18T09:10:47;9.56;75.47
72355;SHT30;60314;55.040;73.076;2022-10-18T09:16:04;9.33;76.28
72355;SHT30;60314;55.040;73.076;2022-10-18T09:18:50;9.27;77.17
72355;SHT30;60314;55.040;73.076;2022-10-18T09:21:50;9.22;78.19
72355;SHT30;60314;55.040;73.076;2022-10-18T09:24:25;9.16;78.50
72355;SHT30;60314;55.040;73.076;2022-10-18T09:27:04;9.02;78.93
72355;SHT30;60314;55.040;73.076;2022-10-18T09:35:01;8.85;81.28
72355;SHT30;60314;55.040;73.076;2022-10-18T09:37:32;8.76;81.73
72355;SHT30;60314;55.040;73.076;2022-10-18T09:40:11;8.72;81.50
72355;SHT30;60314;55.040;73.076;2022-10-18T09:42:42;8.65;81.15
72355;SHT30;60314;55.040;73.076;2022-10-18T09:45:35;8.58;81.87
72355;SHT30;60314;55.040;73.076;2022-10-18T09:48:25;8.58;81.98
72355;SHT30;60314;55.040;73.076;2022-10-18T09:50:59;8.57;82.31
72355;SHT30;60314;55.040;73.076;2022-10-18T09:53:39;8.51;81.76
72355;SHT30;60314;55.040;73.076;2022-10-18T09:56:17;8.51;81.63
72355;SHT30;60314;55.040;73.076;2022-10-18T09:58:47;8.48;82.02
72355;SHT30;60314;55.040;73.076;2022-10-18T10:01:20;8.52;82.04
72355;SHT30;60314;55.040;73.076;2022-10-18T10:03:47;8.55;82.13
72355;SHT30;60314;55.040;73.076;2022-10-18T10:08:47;8.31;81.17
72355;SHT30;60314;55.040;73.076;2022-10-18T10:14:07;8.26;82.25
72355;SHT30;60314;55.040;73.076;2022-10-18T10:16:51;8.19;82.16
72355;SHT30;60314;55.040;73.076;2022-10-18T10:21:47;8.27;82.31
72355;SHT30;60314;55.040;73.076;2022-10-18T10:24:24;8.29;82.59
72355;SHT30;60314;55.040;73.076;2022-10-18T10:27:05;8.33;82.74
72355;SHT30;60314;55.040;73.076;2022-10-18T10:32:17;8.30;82.46
72355;SHT30;60314;55.040;73.076;2022-10-18T10:34:44;8.33;82.40
72355;SHT30;60314;55.040;73.076;2022-10-18T10:37:36;8.41;82.22
72355;SHT30;60314;55.040;73.076;2022-10-18T10:40:34;8.33;81.67
72355;SHT30;60314;55.040;73.076;2022-10-18T10:43:17;8.06;82.46
72355;SHT30;60314;55.040;73.076;2022-10-18T10:46:03;8.11;81.59
72355;SHT30;60314;55.040;73.076;2022-10-18T10:48:33;8.07;81.17
72355;SHT30;60314;55.040;73.076;2022-10-18T10:51:10;7.94;80.61
72355;SHT30;60314;55.040;73.076;2022-10-18T10:53:47;7.85;81.09
72355;SHT30;60314;55.040;73.076;2022-10-18T10:56:26;7.49;82.70
72355;SHT30;60314;55.040;73.076;2022-10-18T10:58:57;7.35;82.98
72355;SHT30;60314;55.040;73.076;2022-10-18T11:01:29;7.21;83.42
72355;SHT30;60314;55.040;73.076;2022-10-18T11:04:02;7.22;83.00
72355;SHT30;60314;55.040;73.076;2022-10-18T11:06:39;7.24;83.02
72355;SHT30;60314;55.040;73.076;2022-10-18T11:09:29;7.17;84.06
72355;SHT30;60314;55.040;73.076;2022-10-18T11:12:38;7.18;84.31
72355;SHT30;60314;55.040;73.076;2022-10-18T11:20:35;7.25;84.09
72355;SHT30;60314;55.040;73.076;2022-10-18T11:23:13;7.27;84.03
72355;SHT30;60314;55.040;73.076;2022-10-18T11:26:04;7.29;83.78
72355;SHT30;60314;55.040;73.076;2022-10-18T11:31:33;7.28;83.71
72355;SHT30;60314;55.040;73.076;2022-10-18T11:37:18;7.39;83.46
72355;SHT30;60314;55.040;73.076;2022-10-18T11:51:09;7.55;83.47
72355;SHT30;60314;55.040;73.076;2022-10-18T11:56:46;7.55;83.07
72355;SHT30;60314;55.040;73.076;2022-10-18T12:05:28;7.56;82.93
72355;SHT30;60314;55.040;73.076;2022-10-18T12:10:40;7.56;82.56
72355;SHT30;60314;55.040;73.076;2022-10-18T12:13:14;7.47;82.61
72355;SHT30;60314;55.040;73.076;2022-10-18T12:15:42;7.47;82.66
72355;SHT30;60314;55.040;73.076;2022-10-18T12:18:18;7.47;82.85
72355;SHT30;60314;55.040;73.076;2022-10-18T12:20:47;7.45;83.12
72355;SHT30;60314;55.040;73.076;2022-10-18T12:23:18;7.42;83.13
72355;SHT30;60314;55.040;73.076;2022-10-18T12:25:51;7.39;83.24
72355;SHT30;60314;55.040;73.076;2022-10-18T12:28:44;7.41;83.16
72355;SHT30;60314;55.040;73.076;2022-10-18T12:31:29;7.39;82.84
72355;SHT30;60314;55.040;73.076;2022-10-18T12:34:37;7.36;82.84
72355;SHT30;60314;55.040;73.076;2022-10-18T12:40:04;7.44;83.06
72355;SHT30;60314;55.040;73.076;2022-10-18T12:42:33;7.45;82.79
72355;SHT30;60314;55.040;73.076;2022-10-18T12:45:23;7.42;82.94
72355;SHT30;60314;55.040;73.076;2022-10-18T12:47:50;7.39;83.26
72355;SHT30;60314;55.040;73.076;2022-10-18T12:50:30;7.38;83.49
72355;SHT30;60314;55.040;73.076;2022-10-18T12:53:23;7.38;83.27
72355;SHT30;60314;55.040;73.076;2022-10-18T12:55:52;7.38;83.14
72355;SHT30;60314;55.040;73.076;2022-10-18T12:58:21;7.34;83.07
72355;SHT30;60314;55.040;73.076;2022-10-18T13:00:52;7.31;82.93
72355;SHT30;60314;55.040;73.076;2022-10-18T13:28:04;7.18;84.40
72355;SHT30;60314;55.040;73.076;2022-10-18T13:31:46;7.22;84.75
72355;SHT30;60314;55.040;73.076;2022-10-18T13:33:46;7.20;85.13
72355;SHT30;60314;55.040;73.076;2022-10-18T13:41:30;7.28;85.22
72355;SHT30;60314;55.040;73.076;2022-10-18T13:44:36;7.27;85.24
72355;SHT30;60314;55.040;73.076;2022-10-18T13:47:14;7.22;85.40
72355;SHT30;60314;55.040;73.076;2022-10-18T13:50:05;7.21;85.48
72355;SHT30;60314;55.040;73.076;2022-10-18T13:56:09;7.08;85.28
72355;SHT30;60314;55.040;73.076;2022-10-18T13:59:09;7.01;84.92
72355;SHT30;60314;55.040;73.076;2022-10-18T14:01:53;7.04;84.65
72355;SHT30;60314;55.040;73.076;2022-10-18T14:07:26;6.96;83.82
72355;SHT30;60314;55.040;73.076;2022-10-18T14:09:54;6.90;83.30
72355;SHT30;60314;55.040;73.076;2022-10-18T14:12:39;6.81;83.42
72355;SHT30;60314;55.040;73.076;2022-10-18T14:15:20;6.75;84.42
72355;SHT30;60314;55.040;73.076;2022-10-18T14:17:51;6.73;84.46
72355;SHT30;60314;55.040;73.076;2022-10-18T14:23:11;6.87;83.99
72355;SHT30;60314;55.040;73.076;2022-10-18T14:25:40;6.80;84.11
72355;SHT30;60314;55.040;73.076;2022-10-18T14:28:19;6.77;83.19
72355;SHT30;60314;55.040;73.076;2022-10-18T14:30:50;6.76;83.02
72355;SHT30;60314;55.040;73.076;2022-10-18T14:33:45;6.72;82.90
72355;SHT30;60314;55.040;73.076;2022-10-18T14:38:52;6.69;83.06
72355;SHT30;60314;55.040;73.076;2022-10-18T14:41:22;6.73;82.94
72355;SHT30;60314;55.040;73.076;2022-10-18T14:46:40;6.57;82.95
72355;SHT30;60314;55.040;73.076;2022-10-18T14:49:10;6.57;83.20
72355;SHT30;60314;55.040;73.076;2022-10-18T14:51:40;6.54;83.39
72355;SHT30;60314;55.040;73.076;2022-10-18T14:54:15;6.54;83.44
72355;SHT30;60314;55.040;73.076;2022-10-18T14:56:43;6.59;83.13
72355;SHT30;60314;55.040;73.076;2022-10-18T14:59:19;6.57;83.21
72355;SHT30;60314;55.040;73.076;2022-10-18T15:02:02;6.59;82.99
72355;SHT30;60314;55.040;73.076;2022-10-18T15:04:39;6.57;83.28
72355;SHT30;60314;55.040;73.076;2022-10-18T15:07:14;6.53;83.26
72355;SHT30;60314;55.040;73.076;2022-10-18T15:09:42;6.53;84.09
72355;SHT30;60314;55.040;73.076;2022-10-18T15:12:11;6.50;83.98
72355;SHT30;60314;55.040;73.076;2022-10-18T15:14:39;6.49;84.46
72355;SHT30;60314;55.040;73.076;2022-10-18T15:17:19;6.49;84.50
72355;SHT30;60314;55.040;73.076;2022-10-18T15:20:02;6.50;84.72
72355;SHT30;60314;55.040;73.076;2022-10-18T15:22:42;6.46;84.75
72355;SHT30;60314;55.040;73.076;2022-10-18T15:25:26;6.49;84.69
72355;SHT30;60314;55.040;73.076;2022-10-18T15:29:02;6.45;84.64
72355;SHT30;60314;55.040;73.076;2022-10-18T15:36:46;6.35;85.03
72355;SHT30;60314;55.040;73.076;2022-10-18T15:39:31;6.33;85.04
72355;SHT30;60314;55.040;73.076;2022-10-18T15:42:01;6.35;85.07
72355;SHT30;60314;55.040;73.076;2022-10-18T15:44:33;6.32;85.04
72355;SHT30;60314;55.040;73.076;2022-10-18T15:49:49;6.29;85.67
72355;SHT30;60314;55.040;73.076;2022-10-18T15:54:57;6.33;86.24
72355;SHT30;60314;55.040;73.076;2022-10-18T15:57:24;6.38;86.58
72355;SHT30;60314;55.040;73.076;2022-10-18T15:59:59;6.33;86.90
72355;SHT30;60314;55.040;73.076;2022-10-18T16:02:28;6.42;86.98
72355;SHT30;60314;55.040;73.076;2022-10-18T16:04:57;6.36;87.00
72355;SHT30;60314;55.040;73.076;2022-10-18T16:07:25;6.40;86.92
72355;SHT30;60314;55.040;73.076;2022-10-18T16:09:51;6.40;87.08
72355;SHT30;60314;55.040;73.076;2022-10-18T16:12:18;6.40;87.20
72355;SHT30;60314;55.040;73.076;2022-10-18T16:14:44;6.42;87.28
72355;SHT30;60314;55.040;73.076;2022-10-18T16:17:11;6.40;87.31
72355;SHT30;60314;55.040;73.076;2022-10-18T16:19:43;6.42;87.39
72355;SHT30;60314;55.040;73.076;2022-10-18T16:22:11;6.46;87.53
72355;SHT30;60314;55.040;73.076;2022-10-18T16:24:38;6.46;87.33
72355;SHT30;60314;55.040;73.076;2022-10-18T16:27:05;6.43;87.28
72355;SHT30;60314;55.040;73.076;2022-10-18T16:29:32;6.43;87.21
72355;SHT30;60314;55.040;73.076;2022-10-18T16:31:59;6.35;87.25
72355;SHT30;60314;55.040;73.076;2022-10-18T16:34:26;6.39;87.23
72355;SHT30;60314;55.040;73.076;2022-10-18T16:36:53;6.35;87.12
72355;SHT30;60314;55.040;73.076;2022-10-18T16:39:31;6.33;87.06
72355;SHT30;60314;55.040;73.076;2022-10-18T16:41:59;6.30;87.28
72355;SHT30;60314;55.040;73.076;2022-10-18T16:44:26;6.32;87.29
72355;SHT30;60314;55.040;73.076;2022-10-18T16:46:52;6.30;87.22
72355;SHT30;60314;55.040;73.076;2022-10-18T16:49:21;6.32;87.29
72355;SHT30;60314;55.040;73.076;2022-10-18T16:51:52;6.36;87.17
72355;SHT30;60314;55.040;73.076;2022-10-18T16:54:23;6.36;87.06
72355;SHT30;60314;55.040;73.076;2022-10-18T16:56:50;6.39;86.95
72355;SHT30;60314;55.040;73.076;2022-10-18T16:59:35;6.38;86.90
72355;SHT30;60314;55.040;73.076;2022-10-18T17:02:01;6.38;86.81
72355;SHT30;60314;55.040;73.076;2022-10-18T17:04:31;6.39;86.76
72355;SHT30;60314;55.040;73.076;2022-10-18T17:06:57;6.42;86.78
72355;SHT30;60314;55.040;73.076;2022-10-18T17:09:24;6.46;86.54
72355;SHT30;60314;55.040;73.076;2022-10-18T17:11:51;6.48;86.32
72355;SHT30;60314;55.040;73.076;2022-10-18T17:14:21;6.48;86.31
72355;SHT30;60314;55.040;73.076;2022-10-18T17:16:50;6.50;86.29
72355;SHT30;60314;55.040;73.076;2022-10-18T17:19:16;6.49;86.27
72355;SHT30;60314;55.040;73.076;2022-10-18T17:21:43;6.52;86.14
72355;SHT30;60314;55.040;73.076;2022-10-18T17:24:14;6.50;86.04
72355;SHT30;60314;55.040;73.076;2022-10-18T17:26:41;6.50;86.08
72355;SHT30;60314;55.040;73.076;2022-10-18T17:29:07;6.53;85.79
72355;SHT30;60314;55.040;73.076;2022-10-18T17:31:34;6.53;85.72
72355;SHT30;60314;55.040;73.076;2022-10-18T17:34:02;6.52;85.78
72355;SHT30;60314;55.040;73.076;2022-10-18T17:36:30;6.53;85.73
72355;SHT30;60314;55.040;73.076;2022-10-18T17:38:57;6.50;85.60
72355;SHT30;60314;55.040;73.076;2022-10-18T17:41:24;6.50;85.58
72355;SHT30;60314;55.040;73.076;2022-10-18T17:43:55;6.49;85.43
72355;SHT30;60314;55.040;73.076;2022-10-18T17:46:30;6.56;85.23
72355;SHT30;60314;55.040;73.076;2022-10-18T17:48:57;6.54;85.04
72355;SHT30;60314;55.040;73.076;2022-10-18T17:51:24;6.57;85.03
72355;SHT30;60314;55.040;73.076;2022-10-18T17:53:51;6.57;84.85
72355;SHT30;60314;55.040;73.076;2022-10-18T17:56:23;6.50;85.00
72355;SHT30;60314;55.040;73.076;2022-10-18T17:58:52;6.49;85.00
72355;SHT30;60314;55.040;73.076;2022-10-18T18:01:21;6.48;84.98
72355;SHT30;60314;55.040;73.076;2022-10-18T18:03:49;6.45;85.07
72355;SHT30;60314;55.040;73.076;2022-10-18T18:06:27;6.46;84.90
72355;SHT30;60314;55.040;73.076;2022-10-18T18:08:57;6.48;84.71
72355;SHT30;60314;55.040;73.076;2022-10-18T18:11:25;6.48;84.85
72355;SHT30;60314;55.040;73.076;2022-10-18T18:13:54;6.42;84.91
72355;SHT30;60314;55.040;73.076;2022-10-18T18:16:22;6.38;84.85
72355;SHT30;60314;55.040;73.076;2022-10-18T18:18:59;6.40;84.85
72355;SHT30;60314;55.040;73.076;2022-10-18T18:21:26;6.38;84.77